createdAt,value
2023-02-14T00:00:22.828Z,40.35
2023-02-14T00:02:53.585Z,40.27
2023-02-14T00:05:24.017Z,40.29
2023-02-14T00:07:55.151Z,40.37
2023-02-14T00:10:31.529Z,40.26
2023-02-14T00:13:02.957Z,40.34
2023-02-14T00:15:30.128Z,40.35
2023-02-14T00:18:01.562Z,40.36
2023-02-14T00:20:35.203Z,40.37
2023-02-14T00:23:04.608Z,40.32
2023-02-14T00:25:37.839Z,40.29
2023-02-14T00:28:11.507Z,40.29
2023-02-14T00:30:42.405Z,40.47
2023-02-14T00:33:14.494Z,40.35
2023-02-14T00:35:47.883Z,40.32
2023-02-14T00:38:18.162Z,40.33
2023-02-14T00:40:48.407Z,40.29
2023-02-14T00:43:21.752Z,40.38
2023-02-14T00:45:50.201Z,40.34
2023-02-14T00:48:20.128Z,40.52
2023-02-14T00:50:49.990Z,40.44
2023-02-14T00:53:20.881Z,40.31
2023-02-14T00:55:48.041Z,40.32
2023-02-14T00:58:18.184Z,40.31
2023-02-14T01:00:51.738Z,40.36
2023-02-14T01:03:20.277Z,40.37
2023-02-14T01:05:56.589Z,40.36
2023-02-14T01:08:27.892Z,40.46
2023-02-14T01:11:17.385Z,40.40
2023-02-14T01:13:46.492Z,40.49
2023-02-14T01:16:21.823Z,40.43
2023-02-14T01:18:55.558Z,40.46
2023-02-14T01:21:30.807Z,40.39
2023-02-14T01:24:01.018Z,40.32
2023-02-14T01:26:31.940Z,40.55
2023-02-14T01:29:02.239Z,40.88
2023-02-14T01:31:39.641Z,40.48
2023-02-14T01:34:07.163Z,40.45
2023-02-14T01:36:38.187Z,40.33
2023-02-14T01:39:08.834Z,40.45
2023-02-14T01:41:45.010Z,40.35
2023-02-14T01:44:18.496Z,40.40
2023-02-14T01:46:48.867Z,40.42
2023-02-14T01:49:26.055Z,40.51
2023-02-14T01:52:20.586Z,40.37
2023-02-14T01:55:02.083Z,40.40
2023-02-14T01:57:36.260Z,40.35
2023-02-14T02:00:06.969Z,40.66
2023-02-14T02:02:37.473Z,40.37
2023-02-14T02:05:05.603Z,40.34
2023-02-14T02:07:37.166Z,40.46
2023-02-14T02:10:11.798Z,40.64
2023-02-14T02:12:42.755Z,40.40
2023-02-14T02:15:13.470Z,40.30
2023-02-14T02:17:59.100Z,40.36
2023-02-14T02:20:44.236Z,40.33
2023-02-14T02:23:29.450Z,40.22
2023-02-14T02:26:48.877Z,40.52
2023-02-14T02:29:37.416Z,40.41
2023-02-14T02:32:31.607Z,40.38
2023-02-14T02:35:16.462Z,40.27
2023-02-14T02:37:50.581Z,40.29
2023-02-14T02:40:43.917Z,40.29
2023-02-14T02:43:51.787Z,40.49
2023-02-14T02:46:32.657Z,40.60
2023-02-14T02:49:36.127Z,40.30
2023-02-14T02:52:21.492Z,40.33
2023-02-14T02:55:08.769Z,40.29
2023-02-14T02:57:40.869Z,40.48
2023-02-14T03:00:15.074Z,40.40
2023-02-14T03:02:53.575Z,40.27
2023-02-14T03:05:24.896Z,40.29
2023-02-14T03:07:56.358Z,40.31
2023-02-14T03:10:31.491Z,40.41
2023-02-14T03:13:28.606Z,40.42
2023-02-14T03:16:01.554Z,40.45
2023-02-14T03:18:47.389Z,40.35
2023-02-14T03:21:23.946Z,40.40
2023-02-14T03:24:17.064Z,40.42
2023-02-14T03:26:57.635Z,40.40
2023-02-14T03:29:44.166Z,40.48
2023-02-14T03:32:42.693Z,40.35
2023-02-14T03:35:38.304Z,40.59
2023-02-14T03:38:27.318Z,40.44
2023-02-14T03:41:00.893Z,40.50
2023-02-14T03:43:39.613Z,40.43
2023-02-14T03:46:26.283Z,40.55
2023-02-14T03:48:57.486Z,40.57
2023-02-14T03:51:33.953Z,40.42
2023-02-14T03:54:09.939Z,40.42
2023-02-14T03:56:47.274Z,40.56
2023-02-14T03:59:22.824Z,40.55
2023-02-14T04:01:56.449Z,40.46
2023-02-14T04:04:28.058Z,40.45
2023-02-14T04:06:55.849Z,40.55
2023-02-14T04:09:23.327Z,40.51
2023-02-14T04:11:53.564Z,40.45
2023-02-14T04:14:23.721Z,40.67
2023-02-14T04:16:51.088Z,40.53
2023-02-14T04:19:18.064Z,40.43
2023-02-14T04:21:47.575Z,40.71
2023-02-14T04:24:14.699Z,40.53
2023-02-14T04:26:48.267Z,40.47
2023-02-14T04:29:15.364Z,40.48
2023-02-14T04:31:45.961Z,40.65
2023-02-14T04:34:16.567Z,40.65
2023-02-14T04:36:46.940Z,40.62
2023-02-14T04:39:17.563Z,40.42
2023-02-14T04:41:44.892Z,40.91
2023-02-14T04:44:15.164Z,40.40
2023-02-14T04:46:44.837Z,40.52
2023-02-14T04:49:12.298Z,40.54
2023-02-14T04:51:39.601Z,40.45
2023-02-14T04:54:15.546Z,40.42
2023-02-14T04:56:42.997Z,40.41
2023-02-14T04:59:13.201Z,40.53
2023-02-14T05:01:43.686Z,40.42
2023-02-14T05:04:19.036Z,40.41
2023-02-14T05:06:50.239Z,40.50
2023-02-14T05:09:17.791Z,40.60
2023-02-14T05:11:50.847Z,40.64
2023-02-14T05:14:21.370Z,40.48
2023-02-14T05:16:49.209Z,40.64
2023-02-14T05:19:19.191Z,40.69
2023-02-14T05:21:49.186Z,40.85
2023-02-14T05:24:19.599Z,40.83
2023-02-14T05:26:50.859Z,40.83
2023-02-14T05:29:24.534Z,40.78
2023-02-14T05:31:55.074Z,40.74
2023-02-14T05:34:28.540Z,40.86
2023-02-14T05:37:02.270Z,40.87
2023-02-14T05:39:30.346Z,40.93
2023-02-14T05:42:06.429Z,41.04
2023-02-14T05:44:35.947Z,39.83
2023-02-14T05:47:08.699Z,37.98
2023-02-14T05:49:39.036Z,37.45
2023-02-14T05:52:09.189Z,36.95
2023-02-14T05:54:39.743Z,37.10
2023-02-14T05:57:12.802Z,40.48
2023-02-14T06:02:55.286Z,40.65
2023-02-14T06:05:29.946Z,40.62
2023-02-14T06:08:02.572Z,40.67
2023-02-14T06:10:29.883Z,40.50
2023-02-14T06:12:57.368Z,40.25
2023-02-14T06:15:30.848Z,40.58
2023-02-14T06:18:04.272Z,40.64
2023-02-14T06:20:35.569Z,40.94
2023-02-14T06:23:08.805Z,40.74
2023-02-14T06:25:39.908Z,41.37
2023-02-14T06:28:09.676Z,41.52
2023-02-14T06:30:36.849Z,41.67
2023-02-14T06:33:04.108Z,41.71
2023-02-14T06:35:34.268Z,41.65
2023-02-14T06:38:07.856Z,41.20
2023-02-14T06:40:41.230Z,41.21
2023-02-14T06:43:17.682Z,41.59
2023-02-14T06:45:49.011Z,41.61
2023-02-14T06:48:19.039Z,41.55
2023-02-14T06:50:51.947Z,41.43
2023-02-14T06:53:27.418Z,41.07
2023-02-14T06:55:59.838Z,41.02
2023-02-14T06:58:27.788Z,41.05
2023-02-14T07:01:03.454Z,40.75
2023-02-14T07:03:36.473Z,40.83
2023-02-14T07:06:12.713Z,40.59
2023-02-14T07:08:41.038Z,40.64
2023-02-14T07:11:13.622Z,40.73
2023-02-14T07:13:43.737Z,40.55
2023-02-14T07:16:14.572Z,40.54
2023-02-14T07:18:45.074Z,40.73
2023-02-14T07:21:14.659Z,40.70
2023-02-14T07:23:44.392Z,40.60
2023-02-14T07:26:18.002Z,40.57
2023-02-14T07:28:49.503Z,40.61
2023-02-14T07:31:21.047Z,40.63
2023-02-14T07:33:47.919Z,40.69
2023-02-14T07:36:19.908Z,40.76
2023-02-14T07:38:47.004Z,40.72
2023-02-14T07:41:16.390Z,40.78
2023-02-14T07:43:47.164Z,40.79
2023-02-14T07:46:13.998Z,40.74
2023-02-14T07:48:46.821Z,40.95
2023-02-14T07:51:25.213Z,40.97
2023-02-14T07:53:52.627Z,41.12
2023-02-14T07:56:19.915Z,41.31
2023-02-14T07:58:47.043Z,41.48
2023-02-14T08:01:18.834Z,41.38
2023-02-14T08:03:49.299Z,41.25
2023-02-14T08:06:20.296Z,41.24
2023-02-14T08:08:48.128Z,41.43
2023-02-14T08:11:18.150Z,41.39
2023-02-14T08:13:47.686Z,41.08
2023-02-14T08:16:17.650Z,40.98
2023-02-14T08:18:47.806Z,40.89
2023-02-14T08:21:21.353Z,40.82
2023-02-14T08:23:51.502Z,40.78
2023-02-14T08:26:20.978Z,40.74
2023-02-14T08:28:50.416Z,40.69
2023-02-14T08:31:35.243Z,40.64
2023-02-14T08:34:04.600Z,40.61
2023-02-14T08:36:35.296Z,40.53
2023-02-14T08:39:08.051Z,40.46
2023-02-14T08:41:40.375Z,40.44
2023-02-14T08:44:10.281Z,40.38
2023-02-14T08:46:43.649Z,40.41
2023-02-14T08:49:10.810Z,40.26
2023-02-14T08:51:40.652Z,40.39
2023-02-14T08:54:07.513Z,40.35
2023-02-14T08:56:34.380Z,40.48
2023-02-14T08:59:01.284Z,40.47
2023-02-14T09:01:31.924Z,40.49
2023-02-14T09:04:01.387Z,40.77
2023-02-14T09:06:30.949Z,40.41
2023-02-14T09:09:03.445Z,40.38
2023-02-14T09:11:33.435Z,40.35
2023-02-14T09:14:00.171Z,40.30
2023-02-14T09:16:30.975Z,40.26
2023-02-14T09:19:00.449Z,40.24
2023-02-14T09:21:30.860Z,40.31
2023-02-14T09:24:01.500Z,40.23
2023-02-14T09:26:31.517Z,40.25
2023-02-14T09:29:01.444Z,40.23
2023-02-14T09:31:34.466Z,40.21
2023-02-14T09:34:06.733Z,40.21
2023-02-14T09:36:33.609Z,40.14
2023-02-14T09:39:03.378Z,40.18
2023-02-14T09:41:46.390Z,39.99
2023-02-14T09:44:45.213Z,40.17
2023-02-14T09:47:24.199Z,40.30
2023-02-14T09:49:52.600Z,40.24
2023-02-14T09:52:27.779Z,40.21
2023-02-14T09:55:13.411Z,40.15
2023-02-14T09:58:02.820Z,38.91
2023-02-14T10:00:41.468Z,39.79
2023-02-14T10:03:35.183Z,39.95
2023-02-14T10:06:29.138Z,39.87
2023-02-14T10:09:26.478Z,39.97
2023-02-14T10:11:59.464Z,39.95
2023-02-14T10:14:32.386Z,39.98
2023-02-14T10:17:28.981Z,39.95
2023-02-14T10:20:04.766Z,40.00
2023-02-14T10:22:46.838Z,40.07
2023-02-14T10:25:27.425Z,40.11
2023-02-14T10:28:01.524Z,40.09
2023-02-14T10:30:39.734Z,40.05
2023-02-14T10:33:26.727Z,40.07
2023-02-14T10:36:05.848Z,39.96
2023-02-14T10:38:55.399Z,39.88
2023-02-14T10:41:50.086Z,39.91
2023-02-14T10:44:56.750Z,39.84
2023-02-14T10:47:38.450Z,39.80
2023-02-14T10:50:16.706Z,39.74
2023-02-14T10:52:55.958Z,39.73
2023-02-14T10:55:50.945Z,39.71
2023-02-14T10:58:26.252Z,39.68
2023-02-14T11:01:03.000Z,39.61
2023-02-14T11:03:44.313Z,39.57
2023-02-14T11:06:16.584Z,39.51
2023-02-14T11:08:53.787Z,39.47
2023-02-14T11:11:35.280Z,39.51
2023-02-14T11:14:36.718Z,39.47
2023-02-14T11:17:30.149Z,39.50
2023-02-14T11:20:02.049Z,39.34
2023-02-14T11:22:37.023Z,39.32
2023-02-14T11:25:26.288Z,39.40
2023-02-14T11:28:08.437Z,39.48
2023-02-14T11:30:46.930Z,39.46
2023-02-14T11:33:43.283Z,39.46
2023-02-14T11:36:20.297Z,39.51
2023-02-14T11:39:28.594Z,39.48
2023-02-14T11:42:05.592Z,39.43
2023-02-14T11:44:36.665Z,39.32
2023-02-14T11:47:27.548Z,39.23
2023-02-14T11:50:09.870Z,39.27
2023-02-14T11:52:58.955Z,39.19
2023-02-14T11:55:39.802Z,38.83
2023-02-14T11:58:09.631Z,38.79
2023-02-14T12:00:39.844Z,38.86
2023-02-14T12:03:09.783Z,38.23
2023-02-14T12:05:49.525Z,38.19
2023-02-14T12:08:28.011Z,38.84
2023-02-14T12:11:18.413Z,39.32
2023-02-14T12:13:56.640Z,39.43
2023-02-14T12:16:39.107Z,39.44
2023-02-14T12:19:24.478Z,39.49
2023-02-14T12:22:03.033Z,39.66
2023-02-14T12:24:38.381Z,39.67
2023-02-14T12:27:18.924Z,39.72
2023-02-14T12:29:59.785Z,39.75
2023-02-14T12:32:29.774Z,39.99
2023-02-14T12:35:28.302Z,40.15
2023-02-14T12:38:34.124Z,40.55
2023-02-14T12:41:22.162Z,40.52
2023-02-14T12:43:53.476Z,40.30
2023-02-14T12:47:01.262Z,40.52
2023-02-14T12:49:54.750Z,40.35
2023-02-14T12:52:30.377Z,40.21
2023-02-14T12:55:42.390Z,40.14
2023-02-14T12:58:18.290Z,40.13
2023-02-14T13:01:09.780Z,40.14
2023-02-14T13:04:07.489Z,40.14
2023-02-14T13:06:39.925Z,40.06
2023-02-14T13:09:16.011Z,39.51
2023-02-14T13:12:27.984Z,39.12
2023-02-14T13:15:38.001Z,38.66
2023-02-14T13:18:31.027Z,38.59
2023-02-14T13:21:04.891Z,38.81
2023-02-14T13:23:45.092Z,39.00
2023-02-14T13:26:20.621Z,39.21
2023-02-14T13:28:56.899Z,39.16
2023-02-14T13:31:24.124Z,39.34
2023-02-14T13:34:02.029Z,39.42
2023-02-14T13:36:36.071Z,39.61
2023-02-14T13:39:04.611Z,39.62
2023-02-14T13:41:32.309Z,39.60
2023-02-14T13:44:02.937Z,39.55
2023-02-14T13:46:36.219Z,39.57
2023-02-14T13:49:24.317Z,39.58
2023-02-14T13:51:59.557Z,39.66
2023-02-14T13:54:46.716Z,39.67
2023-02-14T13:57:39.050Z,39.73
2023-02-14T14:00:40.042Z,39.88
2023-02-14T14:03:27.842Z,39.95
2023-02-14T14:06:08.904Z,39.86
2023-02-14T14:08:50.549Z,39.91
2023-02-14T14:11:26.089Z,39.88
2023-02-14T14:14:04.149Z,39.82
2023-02-14T14:16:36.168Z,39.79
2023-02-14T14:19:21.229Z,39.72
2023-02-14T14:22:07.155Z,39.54
2023-02-14T14:24:37.460Z,39.61
2023-02-14T14:27:07.684Z,39.63
2023-02-14T14:29:42.979Z,39.71
2023-02-14T14:32:18.398Z,39.69
2023-02-14T14:34:56.093Z,39.66
2023-02-14T14:37:30.811Z,39.64
2023-02-14T14:40:00.974Z,39.62
2023-02-14T14:42:38.031Z,39.78
2023-02-14T14:45:09.474Z,39.80
2023-02-14T14:47:42.887Z,39.71
2023-02-14T14:50:24.446Z,37.15
2023-02-14T14:53:00.321Z,36.76
2023-02-14T14:55:33.152Z,38.46
2023-02-14T14:58:24.862Z,38.94
2023-02-14T15:00:51.996Z,39.07
2023-02-14T15:03:22.944Z,39.00
2023-02-14T15:05:50.848Z,38.96
2023-02-14T15:08:22.282Z,38.96
2023-02-14T15:11:11.951Z,38.95
2023-02-14T15:13:46.545Z,38.97
2023-02-14T15:16:18.638Z,38.93
2023-02-14T15:18:46.269Z,38.93
2023-02-14T15:21:16.821Z,38.95
2023-02-14T15:23:45.874Z,38.99
2023-02-14T15:26:29.842Z,38.96
2023-02-14T15:29:05.698Z,39.00
2023-02-14T15:31:40.784Z,38.94
2023-02-14T15:34:12.385Z,38.96
2023-02-14T15:36:45.076Z,38.94
2023-02-14T15:39:17.068Z,38.97
2023-02-14T15:41:47.059Z,38.99
2023-02-14T15:44:22.463Z,38.96
2023-02-14T15:47:03.047Z,39.00
2023-02-14T15:49:39.970Z,38.98
2023-02-14T15:52:16.007Z,39.02
2023-02-14T15:54:45.826Z,39.05
2023-02-14T15:57:26.274Z,39.31
2023-02-14T15:59:53.584Z,39.28
2023-02-14T16:02:37.163Z,39.33
2023-02-14T16:05:20.474Z,39.31
2023-02-14T16:07:56.272Z,39.19
2023-02-14T16:10:33.203Z,39.16
2023-02-14T16:13:14.890Z,39.01
2023-02-14T16:15:59.981Z,39.53
2023-02-14T16:18:40.511Z,40.05
2023-02-14T16:21:21.194Z,40.01
2023-02-14T16:24:08.504Z,39.94
2023-02-14T16:26:42.836Z,39.84
2023-02-14T16:29:15.196Z,39.65
2023-02-14T16:32:14.649Z,39.72
2023-02-14T16:35:29.724Z,39.86
2023-02-14T16:37:59.563Z,40.33
2023-02-14T16:40:28.154Z,40.44
2023-02-14T16:42:54.912Z,40.33
2023-02-14T16:45:27.659Z,40.13
2023-02-14T16:47:59.003Z,40.32
2023-02-14T16:50:28.896Z,40.62
2023-02-14T16:52:58.695Z,40.65
2023-02-14T16:55:29.271Z,40.46
2023-02-14T16:57:57.754Z,40.39
2023-02-14T17:00:24.562Z,40.34
2023-02-14T17:02:51.338Z,40.20
2023-02-14T17:05:18.460Z,40.08
2023-02-14T17:07:48.926Z,40.11
2023-02-14T17:10:18.409Z,40.30
2023-02-14T17:12:49.765Z,40.13
2023-02-14T17:15:21.900Z,40.04
2023-02-14T17:17:50.183Z,39.94
2023-02-14T17:20:17.762Z,39.81
2023-02-14T17:22:49.661Z,39.78
2023-02-14T17:25:22.701Z,39.78
2023-02-14T17:27:50.347Z,39.81
2023-02-14T17:30:18.538Z,39.80
2023-02-14T17:32:50.484Z,40.06
2023-02-14T17:38:40.734Z,40.14
2023-02-14T17:41:45.378Z,40.34
2023-02-14T17:44:12.807Z,40.87
2023-02-14T17:46:50.294Z,40.93
2023-02-14T17:49:59.790Z,41.01
2023-02-14T17:52:30.339Z,41.16
2023-02-14T17:55:06.005Z,40.32
2023-02-14T17:57:39.441Z,40.18
2023-02-14T18:00:12.207Z,40.63
2023-02-14T18:05:29.066Z,40.81
2023-02-14T18:08:11.516Z,41.12
2023-02-14T18:10:42.747Z,41.02
2023-02-14T18:13:24.145Z,41.42
2023-02-14T18:15:54.140Z,41.39
2023-02-14T18:18:30.931Z,40.97
2023-02-14T18:21:03.174Z,40.97
2023-02-14T18:23:34.768Z,40.69
2023-02-14T18:26:11.285Z,40.80
2023-02-14T18:32:07.179Z,41.06
2023-02-14T18:34:52.263Z,40.64
2023-02-14T18:37:38.457Z,40.43
2023-02-14T18:40:22.368Z,40.43
2023-02-14T18:43:12.493Z,40.34
2023-02-14T18:46:12.292Z,40.20
2023-02-14T18:48:59.253Z,40.13
2023-02-14T18:51:53.459Z,40.00
2023-02-14T18:54:37.895Z,39.96
2023-02-14T18:57:13.112Z,39.95
2023-02-14T18:59:40.281Z,39.80
2023-02-14T19:02:16.870Z,39.78
2023-02-14T19:04:53.897Z,39.67
2023-02-14T19:07:40.070Z,39.63
2023-02-14T19:10:27.914Z,39.87
2023-02-14T19:13:34.993Z,39.93
2023-02-14T19:45:01.793Z,39.82
2023-02-14T20:01:00.015Z,39.39
2023-02-14T20:07:29.897Z,39.78
2023-02-14T20:10:21.659Z,39.72
2023-02-14T20:13:03.322Z,39.83
2023-02-14T20:16:23.427Z,39.98
2023-02-14T20:19:25.922Z,40.01
2023-02-14T20:22:07.854Z,39.80
2023-02-14T20:25:08.191Z,39.66
2023-02-14T20:27:41.904Z,39.66
2023-02-14T20:30:25.260Z,39.60
2023-02-14T20:33:15.646Z,39.55
2023-02-14T20:36:09.603Z,39.49
2023-02-14T20:39:18.326Z,39.50
2023-02-14T20:42:19.509Z,39.63
2023-02-14T20:48:55.960Z,39.47
2023-02-14T20:51:35.973Z,39.39
2023-02-14T20:54:17.974Z,39.19
2023-02-14T20:57:04.932Z,39.14
2023-02-14T21:06:33.314Z,39.33
2023-02-14T21:09:56.027Z,39.00
2023-02-14T21:12:41.346Z,39.09
2023-02-14T21:15:18.796Z,38.93
2023-02-14T21:18:00.646Z,38.89
2023-02-14T21:21:20.697Z,38.85
2023-02-14T21:24:06.751Z,39.05
2023-02-14T21:26:40.343Z,38.74
2023-02-14T21:29:30.752Z,38.96
2023-02-14T21:32:09.204Z,38.99
2023-02-14T21:34:57.174Z,38.84
2023-02-14T21:37:29.252Z,38.71
2023-02-14T21:40:19.645Z,38.64
2023-02-14T21:43:03.374Z,38.50
2023-02-14T21:45:53.258Z,38.59
2023-02-14T21:48:28.763Z,38.67
2023-02-14T21:51:11.726Z,38.69
2023-02-14T21:53:57.303Z,38.62
2023-02-14T21:57:07.655Z,38.68
2023-02-14T21:59:58.566Z,38.61
2023-02-14T22:02:39.286Z,38.54
2023-02-14T22:05:33.691Z,38.64
2023-02-14T22:08:15.944Z,38.61
2023-02-14T22:14:02.442Z,38.59
2023-02-14T22:16:43.206Z,38.58
2023-02-14T22:19:15.948Z,38.58
2023-02-14T22:21:44.707Z,38.58
2023-02-14T22:24:33.676Z,38.70
2023-02-14T22:27:03.721Z,38.70
2023-02-14T22:29:56.759Z,38.54
2023-02-14T22:32:46.786Z,38.57
2023-02-14T22:35:35.112Z,38.51
2023-02-14T22:38:17.703Z,38.64
2023-02-14T22:41:06.558Z,38.53
2023-02-14T22:43:43.549Z,38.53
2023-02-14T22:46:22.566Z,38.48
2023-02-14T22:49:08.466Z,38.47
2023-02-14T22:52:05.355Z,38.60
2023-02-14T22:54:41.670Z,38.46
2023-02-14T22:57:24.948Z,38.44
2023-02-14T23:00:05.155Z,38.48
2023-02-14T23:02:54.980Z,38.37
2023-02-14T23:05:26.164Z,38.31
2023-02-14T23:08:17.258Z,38.27
2023-02-14T23:11:09.130Z,38.45
2023-02-14T23:13:38.913Z,38.29
2023-02-14T23:16:10.680Z,38.33
2023-02-14T23:18:56.550Z,38.23
2023-02-14T23:21:36.465Z,38.32
2023-02-14T23:24:46.604Z,38.28
2023-02-14T23:27:30.246Z,38.30
2023-02-14T23:30:21.835Z,38.41
2023-02-14T23:33:03.756Z,38.19
2023-02-14T23:35:37.617Z,38.13
2023-02-14T23:38:09.319Z,38.14
2023-02-14T23:40:37.511Z,38.22
2023-02-14T23:43:11.871Z,38.14
2023-02-14T23:45:51.693Z,38.12
2023-02-14T23:48:23.190Z,38.07
2023-02-14T23:50:52.898Z,38.06
2023-02-14T23:53:24.101Z,38.07
2023-02-14T23:56:10.922Z,37.98
2023-02-14T23:58:40.205Z,38.05
